createdAt,value
2022-12-18T00:00:34.389Z,-5.04
2022-12-18T00:03:01.202Z,-5.10
2022-12-18T00:05:27.779Z,-5.01
2022-12-18T00:07:55.447Z,-4.76
2022-12-18T00:10:21.927Z,-4.83
2022-12-18T00:12:48.454Z,-4.79
2022-12-18T00:15:14.997Z,-4.80
2022-12-18T00:17:45.438Z,-4.80
2022-12-18T00:20:13.474Z,-4.80
2022-12-18T00:22:39.962Z,-4.76
2022-12-18T00:25:06.791Z,-4.79
2022-12-18T00:27:33.321Z,-4.90
2022-12-18T00:29:59.815Z,-4.76
2022-12-18T00:32:26.396Z,-4.73
2022-12-18T00:34:52.884Z,-4.62
2022-12-18T00:37:20.417Z,-4.60
2022-12-18T00:39:49.121Z,-4.60
2022-12-18T00:42:34.114Z,-4.62
2022-12-18T00:45:00.622Z,-4.63
2022-12-18T00:47:27.144Z,-4.58
2022-12-18T00:49:53.631Z,-4.65
2022-12-18T00:52:20.187Z,-4.70
2022-12-18T00:54:46.677Z,-4.68
2022-12-18T01:23:12.537Z,-4.49
2022-12-18T01:25:39.414Z,-4.41
2022-12-18T01:28:08.787Z,-4.42
2022-12-18T01:30:35.607Z,-4.52
2022-12-18T01:33:02.254Z,-4.55
2022-12-18T01:35:28.854Z,-4.48
2022-12-18T01:37:58.091Z,-4.46
2022-12-18T01:40:25.119Z,-4.46
2022-12-18T01:42:53.567Z,-4.46
2022-12-18T01:45:20.268Z,-4.44
2022-12-18T01:48:01.708Z,-4.50
2022-12-18T01:50:35.698Z,-4.53
2022-12-18T01:53:11.516Z,-4.56
2022-12-18T01:55:46.293Z,-4.59
2022-12-18T01:58:13.103Z,-4.50
2022-12-18T02:00:40.088Z,-4.33
2022-12-18T02:03:07.266Z,-4.39
2022-12-18T02:06:00.658Z,-4.41
2022-12-18T02:08:37.108Z,-4.45
2022-12-18T02:11:15.210Z,-4.49
2022-12-18T02:13:57.912Z,-4.53
2022-12-18T02:16:37.644Z,-4.52
2022-12-18T02:19:17.746Z,-4.53
2022-12-18T02:21:56.097Z,-4.53
2022-12-18T02:24:31.026Z,-4.60
2022-12-18T02:27:08.638Z,-4.65
2022-12-18T02:29:45.726Z,-4.69
2022-12-18T02:32:17.999Z,-4.81
2022-12-18T02:34:45.691Z,-4.80
2022-12-18T02:37:15.672Z,-4.90
2022-12-18T02:39:46.440Z,-5.04
2022-12-18T02:42:13.502Z,-5.12
2022-12-18T02:44:49.105Z,-5.25
2022-12-18T02:47:17.734Z,-5.28
2022-12-18T02:49:50.122Z,-5.29
2022-12-18T02:52:22.301Z,-5.38
2022-12-18T02:55:17.904Z,-5.41
2022-12-18T02:57:53.115Z,-5.41
2022-12-18T03:00:33.023Z,-5.47
2022-12-18T03:03:30.975Z,-5.54
2022-12-18T03:06:04.814Z,-5.62
2022-12-18T03:08:39.166Z,-5.70
2022-12-18T03:11:13.645Z,-5.69
2022-12-18T03:13:50.396Z,-5.72
2022-12-18T03:16:23.890Z,-5.63
2022-12-18T03:19:01.069Z,-5.66
2022-12-18T03:21:33.504Z,-5.70
2022-12-18T03:24:02.021Z,-5.69
2022-12-18T03:26:30.759Z,-5.65
2022-12-18T03:29:05.943Z,-5.69
2022-12-18T03:31:33.914Z,-5.73
2022-12-18T03:34:04.869Z,-5.82
2022-12-18T03:36:31.508Z,-5.87
2022-12-18T03:38:58.041Z,-5.91
2022-12-18T03:41:34.922Z,-5.94
2022-12-18T04:03:50.405Z,-5.93
2022-12-18T04:06:17.987Z,-5.79
2022-12-18T04:08:45.315Z,-5.83
2022-12-18T04:11:11.924Z,-5.87
2022-12-18T04:13:40.471Z,-5.91
2022-12-18T04:16:07.799Z,-5.99
2022-12-18T04:18:34.535Z,-6.00
2022-12-18T04:21:01.119Z,-6.00
2022-12-18T04:23:27.676Z,-5.99
2022-12-18T04:25:54.187Z,-5.99
2022-12-18T04:28:21.305Z,-6.03
2022-12-18T04:30:48.445Z,-6.00
2022-12-18T04:33:17.942Z,-5.94
2022-12-18T04:35:44.592Z,-5.96
2022-12-18T04:38:11.552Z,-5.96
2022-12-18T04:40:38.725Z,-5.94
2022-12-18T04:43:05.906Z,-5.94
2022-12-18T04:45:33.238Z,-5.93
2022-12-18T04:48:00.686Z,-5.89
2022-12-18T04:50:27.989Z,-5.90
2022-12-18T04:52:54.647Z,-5.94
2022-12-18T04:55:21.717Z,-5.87
2022-12-18T04:57:48.192Z,-5.85
2022-12-18T05:00:16.484Z,-5.91
2022-12-18T05:02:43.094Z,-5.80
2022-12-18T05:05:10.019Z,-5.90
2022-12-18T05:07:36.774Z,-5.85
2022-12-18T05:10:03.799Z,-5.87
2022-12-18T05:12:32.178Z,-5.93
2022-12-18T05:14:58.717Z,-5.96
2022-12-18T05:17:25.244Z,-5.96
2022-12-18T05:19:51.831Z,-6.04
2022-12-18T05:22:18.305Z,-6.00
2022-12-18T05:24:44.868Z,-5.91
2022-12-18T05:27:11.410Z,-6.00
2022-12-18T05:29:37.889Z,-5.99
2022-12-18T05:32:04.638Z,-6.06
2022-12-18T05:34:31.462Z,-5.97
2022-12-18T05:36:57.898Z,-6.04
2022-12-18T05:39:24.414Z,-6.10
2022-12-18T05:41:50.977Z,-6.13
2022-12-18T05:44:17.499Z,-6.27
2022-12-18T05:46:44.297Z,-6.11
2022-12-18T05:49:10.894Z,-6.18
2022-12-18T05:51:37.523Z,-6.21
2022-12-18T05:54:04.127Z,-6.27
2022-12-18T05:56:32.377Z,-6.17
2022-12-18T05:58:58.863Z,-6.18
2022-12-18T06:01:27.542Z,-6.20
2022-12-18T06:03:54.797Z,-6.18
2022-12-18T06:06:24.804Z,-6.18
2022-12-18T06:08:52.308Z,-6.18
2022-12-18T06:11:22.348Z,-6.13
2022-12-18T06:13:58.673Z,-6.11
2022-12-18T06:16:26.539Z,-6.06
2022-12-18T06:18:53.077Z,-6.06
2022-12-18T06:21:19.727Z,-6.13
2022-12-18T06:23:46.434Z,-6.13
2022-12-18T06:26:13.805Z,-5.99
2022-12-18T06:28:40.649Z,-5.99
2022-12-18T06:31:08.160Z,-6.03
2022-12-18T06:33:36.067Z,-6.04
2022-12-18T06:36:04.120Z,-6.04
2022-12-18T06:38:30.767Z,-6.09
2022-12-18T06:40:57.593Z,-6.13
2022-12-18T06:43:24.079Z,-6.15
2022-12-18T06:45:53.785Z,-6.14
2022-12-18T06:48:21.009Z,-6.13
2022-12-18T06:50:47.965Z,-6.17
2022-12-18T06:53:14.803Z,-6.06
2022-12-18T06:55:41.268Z,-6.14
2022-12-18T06:58:08.158Z,-6.09
2022-12-18T07:00:35.077Z,-6.04
2022-12-18T07:03:01.624Z,-6.13
2022-12-18T07:05:28.176Z,-6.17
2022-12-18T07:07:54.690Z,-6.18
2022-12-18T07:10:21.318Z,-6.22
2022-12-18T07:12:47.926Z,-6.24
2022-12-18T07:15:15.928Z,-6.15
2022-12-18T07:17:42.464Z,-6.15
2022-12-18T07:20:09.838Z,-6.21
2022-12-18T07:22:36.344Z,-6.11
2022-12-18T07:25:02.954Z,-6.07
2022-12-18T07:27:29.560Z,-6.01
2022-12-18T07:33:40.565Z,-6.15
2022-12-18T07:36:10.773Z,-6.11
2022-12-18T07:38:38.137Z,-6.07
2022-12-18T07:41:09.744Z,-6.00
2022-12-18T07:43:37.660Z,-6.01
2022-12-18T07:46:05.571Z,-6.01
2022-12-18T07:48:32.730Z,-5.87
2022-12-18T07:51:05.579Z,-5.83
2022-12-18T07:53:34.415Z,-5.73
2022-12-18T07:56:31.469Z,-5.68
2022-12-18T07:58:50.798Z,-5.42
2022-12-18T08:01:17.492Z,-5.11
2022-12-18T08:03:44.247Z,-4.89
2022-12-18T08:06:11.081Z,-4.80
2022-12-18T08:08:38.075Z,-4.66
2022-12-18T08:11:04.839Z,-4.49
2022-12-18T08:13:31.376Z,-4.49
2022-12-18T08:16:03.702Z,-4.12
2022-12-18T08:18:30.492Z,-3.87
2022-12-18T08:20:57.049Z,-3.74
2022-12-18T08:23:25.581Z,-3.71
2022-12-18T08:25:55.097Z,-3.66
2022-12-18T08:28:21.614Z,-3.63
2022-12-18T08:30:53.153Z,-3.67
2022-12-18T08:33:19.847Z,-3.59
2022-12-18T08:35:46.456Z,-3.35
2022-12-18T08:38:12.980Z,-3.45
2022-12-18T08:40:42.610Z,-3.28
2022-12-18T08:43:30.151Z,-3.08
2022-12-18T08:45:56.725Z,-2.95
2022-12-18T08:48:23.706Z,-3.02
2022-12-18T08:51:00.475Z,-2.84
2022-12-18T08:53:32.707Z,-2.76
2022-12-18T08:56:01.889Z,-2.43
2022-12-18T08:58:28.445Z,-2.45
2022-12-18T09:00:55.111Z,-2.16
2022-12-18T09:03:23.667Z,-2.03
2022-12-18T09:05:50.361Z,-1.60
2022-12-18T09:08:17.037Z,-1.30
2022-12-18T09:10:45.373Z,-1.25
2022-12-18T09:13:12.896Z,-1.33
2022-12-18T09:15:43.896Z,-1.49
2022-12-18T09:18:10.807Z,-1.67
2022-12-18T09:20:37.917Z,-1.99
2022-12-18T09:23:05.514Z,-1.85
2022-12-18T09:25:36.826Z,-1.84
2022-12-18T09:28:05.779Z,-1.89
2022-12-18T09:30:34.387Z,-1.44
2022-12-18T09:33:02.621Z,-1.16
2022-12-18T09:35:29.165Z,-1.00
2022-12-18T09:37:55.875Z,-0.68
2022-12-18T09:40:26.460Z,-0.44
2022-12-18T09:42:59.911Z,-0.48
2022-12-18T09:45:26.536Z,-0.56
2022-12-18T09:47:56.078Z,-0.65
2022-12-18T09:50:30.990Z,-0.56
2022-12-18T09:53:03.903Z,-0.53
2022-12-18T09:55:39.207Z,-0.44
2022-12-18T09:58:34.675Z,-0.41
2022-12-18T10:01:01.213Z,-0.50
2022-12-18T10:03:27.954Z,-0.47
2022-12-18T10:06:06.939Z,-0.50
2022-12-18T10:09:00.983Z,-0.48
2022-12-18T10:11:42.402Z,-0.47
2022-12-18T10:14:40.103Z,-0.44
2022-12-18T10:17:35.541Z,-0.33
2022-12-18T10:20:14.513Z,-0.26
2022-12-18T10:23:12.881Z,-0.34
2022-12-18T10:26:00.658Z,-0.17
2022-12-18T10:28:28.508Z,0.01
2022-12-18T10:30:55.131Z,0.01
2022-12-18T10:33:24.855Z,0.17
2022-12-18T10:35:52.414Z,0.31
2022-12-18T10:38:24.342Z,0.48
2022-12-18T10:41:04.765Z,0.25
2022-12-18T10:43:40.014Z,0.34
2022-12-18T10:46:10.374Z,0.44
2022-12-18T10:48:42.559Z,0.26
2022-12-18T10:51:12.712Z,0.34
2022-12-18T10:53:42.787Z,0.37
2022-12-18T10:56:10.099Z,0.44
2022-12-18T10:58:46.750Z,0.34
2022-12-18T11:01:14.911Z,0.37
2022-12-18T11:03:41.483Z,0.55
2022-12-18T11:06:19.408Z,0.50
2022-12-18T11:08:58.418Z,0.58
2022-12-18T11:11:25.901Z,0.48
2022-12-18T11:14:43.516Z,0.56
2022-12-18T11:17:27.457Z,0.42
2022-12-18T11:20:08.133Z,0.59
2022-12-18T11:22:37.160Z,0.60
2022-12-18T11:25:32.590Z,0.62
2022-12-18T11:28:01.552Z,0.60
2022-12-18T11:30:32.482Z,0.62
2022-12-18T11:33:20.318Z,0.60
2022-12-18T11:35:57.607Z,0.52
2022-12-18T11:38:53.266Z,0.49
2022-12-18T11:41:53.504Z,0.39
2022-12-18T11:44:30.759Z,0.34
2022-12-18T11:47:06.935Z,0.35
2022-12-18T11:49:37.293Z,0.24
2022-12-18T11:55:39.188Z,0.19
2022-12-18T12:04:52.119Z,-0.09
2022-12-18T12:13:52.324Z,-0.16
2022-12-18T12:16:33.699Z,-0.19
2022-12-18T12:22:34.496Z,-0.26
2022-12-18T12:25:21.997Z,-0.31
2022-12-18T12:28:13.672Z,-0.27
2022-12-18T12:31:04.454Z,-0.27
2022-12-18T12:34:02.285Z,-0.27
2022-12-18T12:36:54.197Z,-0.30
2022-12-18T12:39:26.114Z,-0.30
2022-12-18T12:42:15.338Z,-0.37
2022-12-18T12:45:04.603Z,-0.29
2022-12-18T12:47:41.936Z,-0.27
2022-12-18T12:50:16.099Z,-0.27
2022-12-18T12:52:51.723Z,-0.37
2022-12-18T12:55:31.395Z,-0.34
2022-12-18T12:58:53.901Z,-0.40
2022-12-18T13:01:39.489Z,-0.31
2022-12-18T13:04:43.483Z,-0.45
2022-12-18T13:07:27.993Z,-0.41
2022-12-18T13:10:27.056Z,-0.36
2022-12-18T13:13:00.835Z,-0.40
2022-12-18T13:15:52.361Z,-0.34
2022-12-18T13:18:20.659Z,-0.45
2022-12-18T13:21:05.049Z,-0.40
2022-12-18T13:23:37.707Z,-0.44
2022-12-18T13:26:07.334Z,-0.45
2022-12-18T13:28:46.477Z,-0.42
2022-12-18T13:31:42.689Z,-0.48
2022-12-18T13:34:29.670Z,-0.51
2022-12-18T13:37:17.853Z,-0.53
2022-12-18T13:39:44.702Z,-0.58
2022-12-18T13:42:31.446Z,-0.54
2022-12-18T13:44:58.910Z,-0.54
2022-12-18T13:47:44.444Z,-0.51
2022-12-18T13:50:29.714Z,-0.50
2022-12-18T13:53:02.797Z,-0.51
2022-12-18T13:55:29.887Z,-0.42
2022-12-18T13:58:18.069Z,-0.48
2022-12-18T14:00:45.948Z,-0.51
2022-12-18T14:03:29.616Z,-0.56
2022-12-18T14:06:11.720Z,-0.56
2022-12-18T14:08:41.053Z,-0.58
2022-12-18T14:11:18.810Z,-0.57
2022-12-18T14:13:48.900Z,-0.56
2022-12-18T14:16:16.907Z,-0.57
2022-12-18T14:18:50.591Z,-0.62
2022-12-18T14:21:23.355Z,-0.62
2022-12-18T14:24:03.362Z,-0.61
2022-12-18T14:26:31.753Z,-0.58
2022-12-18T14:29:21.561Z,-0.60
2022-12-18T14:32:08.393Z,-0.61
2022-12-18T14:34:37.707Z,-0.67
2022-12-18T14:37:05.386Z,-0.68
2022-12-18T14:39:32.011Z,-0.65
2022-12-18T14:41:58.570Z,-0.67
2022-12-18T14:44:28.592Z,-0.64
2022-12-18T14:47:03.817Z,-0.67
2022-12-18T14:49:36.387Z,-0.68
2022-12-18T14:52:06.942Z,-0.71
2022-12-18T14:54:38.202Z,-0.72
2022-12-18T14:57:26.000Z,-0.72
2022-12-18T14:59:52.662Z,-0.74
2022-12-18T15:02:27.428Z,-0.74
2022-12-18T15:05:23.558Z,-0.68
2022-12-18T15:07:59.682Z,-0.74
2022-12-18T15:10:32.422Z,-0.74
2022-12-18T15:13:18.848Z,-0.74
2022-12-18T15:15:46.533Z,-0.70
2022-12-18T15:18:17.897Z,-0.77
2022-12-18T15:20:53.119Z,-0.77
2022-12-18T15:26:06.319Z,-0.79
2022-12-18T15:28:37.973Z,-0.79
2022-12-18T15:31:14.771Z,-0.78
2022-12-18T15:33:53.397Z,-0.82
2022-12-18T15:36:26.311Z,-0.82
2022-12-18T15:38:56.167Z,-0.84
2022-12-18T15:41:35.830Z,-0.85
2022-12-18T15:44:03.998Z,-0.87
2022-12-18T15:49:12.011Z,-0.91
2022-12-18T15:51:40.133Z,-0.96
2022-12-18T15:54:13.986Z,-0.95
2022-12-18T15:57:02.188Z,-0.93
2022-12-18T15:59:30.496Z,-0.98
2022-12-18T16:01:57.325Z,-1.00
2022-12-18T16:07:14.771Z,-1.06
2022-12-18T16:09:42.990Z,-1.03
2022-12-18T16:12:19.047Z,-1.06
2022-12-18T16:14:46.524Z,-1.05
2022-12-18T16:17:14.815Z,-1.06
2022-12-18T16:22:25.009Z,-1.09
2022-12-18T16:27:33.759Z,-1.13
2022-12-18T16:30:00.709Z,-1.20
2022-12-18T16:32:35.908Z,-1.13
2022-12-18T16:35:02.459Z,-1.22
2022-12-18T16:37:30.534Z,-1.19
2022-12-18T16:39:57.033Z,-1.23
2022-12-18T16:42:23.568Z,-1.26
2022-12-18T16:44:50.738Z,-1.19
2022-12-18T16:47:18.206Z,-1.22
2022-12-18T16:52:29.939Z,-1.30
2022-12-18T16:57:38.321Z,-1.36
2022-12-18T17:02:46.719Z,-1.35
2022-12-18T17:05:14.464Z,-1.37
2022-12-18T17:07:41.109Z,-1.39
2022-12-18T17:12:51.360Z,-1.44
2022-12-18T17:17:58.210Z,-1.46
2022-12-18T17:20:24.696Z,-1.46
2022-12-18T17:25:32.732Z,-1.46
2022-12-18T17:30:43.017Z,-1.53
2022-12-18T17:35:54.148Z,-1.56
2022-12-18T17:38:20.715Z,-1.54
2022-12-18T17:40:48.398Z,-1.57
2022-12-18T17:43:17.461Z,-1.57
2022-12-18T17:45:43.974Z,-1.57
2022-12-18T17:48:12.999Z,-1.57
2022-12-18T17:50:39.731Z,-1.57
2022-12-18T17:58:41.159Z,-1.60
2022-12-18T18:03:57.914Z,-1.67
2022-12-18T18:09:11.185Z,-1.63
2022-12-18T18:12:02.452Z,-1.63
2022-12-18T18:14:33.637Z,-1.63
2022-12-18T18:17:04.978Z,-1.66
2022-12-18T18:22:12.660Z,-1.66
2022-12-18T18:24:40.420Z,-1.66
2022-12-18T18:29:48.998Z,-1.68
2022-12-18T18:34:55.846Z,-1.64
2022-12-18T18:40:05.801Z,-1.63
2022-12-18T18:42:32.253Z,-1.67
2022-12-18T18:45:00.188Z,-1.66
2022-12-18T18:47:30.573Z,-1.66
2022-12-18T18:49:58.209Z,-1.67
2022-12-18T18:52:26.169Z,-1.63
2022-12-18T19:01:30.310Z,-1.64
2022-12-18T19:03:57.046Z,-1.64
2022-12-18T19:06:37.079Z,-1.63
2022-12-18T19:09:07.129Z,-1.61
2022-12-18T19:11:52.247Z,-1.61
2022-12-18T19:14:19.115Z,-1.57
2022-12-18T19:16:49.724Z,-1.59
2022-12-18T19:19:21.126Z,-1.57
2022-12-18T19:21:50.770Z,-1.56
2022-12-18T19:26:58.243Z,-1.53
2022-12-18T19:29:25.233Z,-1.50
2022-12-18T19:34:32.194Z,-1.44
2022-12-18T19:39:40.407Z,-1.42
2022-12-18T19:44:48.746Z,-1.40
2022-12-18T19:47:15.152Z,-1.37
2022-12-18T19:49:50.824Z,-1.36
2022-12-18T19:52:17.374Z,-1.32
2022-12-18T19:54:43.925Z,-1.28
2022-12-18T19:59:56.495Z,-1.25
2022-12-18T20:02:23.405Z,-1.23
2022-12-18T20:04:51.589Z,-1.17
2022-12-18T20:07:19.249Z,-1.19
2022-12-18T20:10:01.358Z,-1.19
2022-12-18T20:12:32.218Z,-1.13
2022-12-18T20:17:39.517Z,-1.10
2022-12-18T20:22:49.308Z,-1.03
2022-12-18T20:27:58.261Z,-1.02
2022-12-18T20:30:24.739Z,-0.95
2022-12-18T20:32:58.948Z,-0.93
2022-12-18T20:35:28.329Z,-0.95
2022-12-18T20:37:55.939Z,-0.92
2022-12-18T20:40:26.645Z,-0.87
2022-12-18T20:42:53.210Z,-0.84
2022-12-18T20:45:19.813Z,-0.78
2022-12-18T20:50:28.376Z,-0.74
2022-12-18T20:55:46.305Z,-0.67
2022-12-18T20:58:13.189Z,-0.68
2022-12-18T21:00:40.891Z,-0.61
2022-12-18T21:03:09.100Z,-0.58
2022-12-18T21:08:18.350Z,-0.58
2022-12-18T21:13:25.202Z,-0.54
2022-12-18T21:18:35.104Z,-0.54
2022-12-18T21:23:44.278Z,-0.47
